Albion, Oklahoma
Current Conditions -  °F | °C
As of 10:55 AM on Thursday 30 Oct 2014 (Local Time) from KRKR Reporting Station
Broken Clouds Broken Clouds  
Wind Chill: 61°   Ceiling: 9000
Heat Index: 61°   Visibility: 10mi
Dew Point: 47°   Wind: 6mph
Humidity: 60%   Direction: 200°SSW
Pressure: 30.14"   Gusts: NA
Location:  34.66°N, 95.1°W
Report Text: KRKR 301555Z AUTO 20005KT 10SM BKN090 16/09 A3014 RMK AO2 T01630086
Loading
Personal Weather Stations






























Interactive Weather Map New forecast layout! Learn more

10-Day Weather Forecast

Advertisements
Track Severe Weather on mobile